sensor_id;sensor_type;location;lat;lon;timestamp;P1;durP1;ratioP1;P2;durP2;ratioP2
20076;SDS011;12348;42.710;23.378;2022-09-29T00:03:41;3.33;;;2.43;;
20076;SDS011;12348;42.710;23.378;2022-09-29T00:06:11;6.03;;;3.00;;
20076;SDS011;12348;42.710;23.378;2022-09-29T00:08:39;5.60;;;4.33;;
20076;SDS011;12348;42.710;23.378;2022-09-29T00:11:06;5.23;;;2.87;;
20076;SDS011;12348;42.710;23.378;2022-09-29T00:13:35;4.00;;;2.70;;
20076;SDS011;12348;42.710;23.378;2022-09-29T00:16:02;5.13;;;2.30;;
20076;SDS011;12348;42.710;23.378;2022-09-29T00:18:30;4.70;;;2.80;;
20076;SDS011;12348;42.710;23.378;2022-09-29T00:20:58;3.20;;;2.43;;
20076;SDS011;12348;42.710;23.378;2022-09-29T00:23:26;7.60;;;3.37;;
20076;SDS011;12348;42.710;23.378;2022-09-29T00:25:59;2.37;;;2.17;;
20076;SDS011;12348;42.710;23.378;2022-09-29T00:28:28;4.03;;;2.20;;
20076;SDS011;12348;42.710;23.378;2022-09-29T00:30:58;3.47;;;2.47;;
20076;SDS011;12348;42.710;23.378;2022-09-29T00:33:27;1.90;;;1.77;;
20076;SDS011;12348;42.710;23.378;2022-09-29T00:35:55;3.70;;;2.30;;
20076;SDS011;12348;42.710;23.378;2022-09-29T00:38:25;3.07;;;2.07;;
20076;SDS011;12348;42.710;23.378;2022-09-29T00:40:52;3.17;;;2.20;;
20076;SDS011;12348;42.710;23.378;2022-09-29T00:43:20;1.97;;;1.87;;
20076;SDS011;12348;42.710;23.378;2022-09-29T00:45:48;2.23;;;1.97;;
20076;SDS011;12348;42.710;23.378;2022-09-29T00:48:23;3.37;;;2.30;;
20076;SDS011;12348;42.710;23.378;2022-09-29T00:50:56;3.13;;;2.23;;
20076;SDS011;12348;42.710;23.378;2022-09-29T00:53:24;2.37;;;1.70;;
20076;SDS011;12348;42.710;23.378;2022-09-29T00:55:52;4.10;;;2.00;;
20076;SDS011;12348;42.710;23.378;2022-09-29T00:58:25;3.50;;;1.90;;
20076;SDS011;12348;42.710;23.378;2022-09-29T01:00:56;1.70;;;1.60;;
20076;SDS011;12348;42.710;23.378;2022-09-29T01:03:25;5.37;;;2.53;;
20076;SDS011;12348;42.710;23.378;2022-09-29T01:05:57;7.03;;;3.00;;
20076;SDS011;12348;42.710;23.378;2022-09-29T01:08:27;4.73;;;2.70;;
20076;SDS011;12348;42.710;23.378;2022-09-29T01:11:00;3.87;;;2.50;;
20076;SDS011;12348;42.710;23.378;2022-09-29T01:13:29;3.80;;;2.00;;
20076;SDS011;12348;42.710;23.378;2022-09-29T01:15:58;2.57;;;2.30;;
20076;SDS011;12348;42.710;23.378;2022-09-29T01:18:27;2.23;;;2.03;;
20076;SDS011;12348;42.710;23.378;2022-09-29T01:20:56;3.80;;;2.10;;
20076;SDS011;12348;42.710;23.378;2022-09-29T01:26:42;3.53;;;2.20;;
20076;SDS011;12348;42.710;23.378;2022-09-29T01:32:35;4.03;;;2.30;;
20076;SDS011;12348;42.710;23.378;2022-09-29T01:35:21;3.73;;;2.67;;
20076;SDS011;12348;42.710;23.378;2022-09-29T01:37:57;7.90;;;3.00;;
20076;SDS011;12348;42.710;23.378;2022-09-29T01:40:33;5.07;;;3.00;;
20076;SDS011;12348;42.710;23.378;2022-09-29T01:43:07;3.50;;;3.20;;
20076;SDS011;12348;42.710;23.378;2022-09-29T01:45:38;4.93;;;2.77;;
20076;SDS011;12348;42.710;23.378;2022-09-29T01:48:12;5.03;;;2.60;;
20076;SDS011;12348;42.710;23.378;2022-09-29T01:50:44;7.37;;;3.13;;
20076;SDS011;12348;42.710;23.378;2022-09-29T01:53:17;3.90;;;2.80;;
20076;SDS011;12348;42.710;23.378;2022-09-29T01:55:49;2.53;;;2.33;;
20076;SDS011;12348;42.710;23.378;2022-09-29T01:58:20;5.37;;;3.23;;
20076;SDS011;12348;42.710;23.378;2022-09-29T02:00:53;4.57;;;2.87;;
20076;SDS011;12348;42.710;23.378;2022-09-29T02:03:26;4.83;;;3.03;;
20076;SDS011;12348;42.710;23.378;2022-09-29T02:05:57;3.83;;;2.80;;
20076;SDS011;12348;42.710;23.378;2022-09-29T02:08:26;3.43;;;2.50;;
20076;SDS011;12348;42.710;23.378;2022-09-29T02:10:58;5.20;;;2.93;;
20076;SDS011;12348;42.710;23.378;2022-09-29T02:13:28;7.03;;;3.30;;
20076;SDS011;12348;42.710;23.378;2022-09-29T02:15:58;4.23;;;2.93;;
20076;SDS011;12348;42.710;23.378;2022-09-29T02:18:28;4.77;;;2.80;;
20076;SDS011;12348;42.710;23.378;2022-09-29T02:20:57;4.33;;;2.60;;
20076;SDS011;12348;42.710;23.378;2022-09-29T02:23:24;3.43;;;2.17;;
20076;SDS011;12348;42.710;23.378;2022-09-29T02:25:51;3.13;;;2.27;;
20076;SDS011;12348;42.710;23.378;2022-09-29T02:28:20;3.33;;;2.37;;
20076;SDS011;12348;42.710;23.378;2022-09-29T02:30:48;2.03;;;1.83;;
20076;SDS011;12348;42.710;23.378;2022-09-29T02:33:16;4.10;;;2.30;;
20076;SDS011;12348;42.710;23.378;2022-09-29T02:35:48;3.87;;;2.77;;
20076;SDS011;12348;42.710;23.378;2022-09-29T02:38:23;4.80;;;2.50;;
20076;SDS011;12348;42.710;23.378;2022-09-29T02:40:57;4.77;;;2.40;;
20076;SDS011;12348;42.710;23.378;2022-09-29T02:46:30;3.47;;;2.20;;
20076;SDS011;12348;42.710;23.378;2022-09-29T02:49:12;3.73;;;2.90;;
20076;SDS011;12348;42.710;23.378;2022-09-29T02:51:50;5.20;;;2.27;;
20076;SDS011;12348;42.710;23.378;2022-09-29T02:54:34;2.50;;;2.30;;
20076;SDS011;12348;42.710;23.378;2022-09-29T02:57:16;3.63;;;2.90;;
20076;SDS011;12348;42.710;23.378;2022-09-29T02:59:51;3.50;;;2.23;;
20076;SDS011;12348;42.710;23.378;2022-09-29T03:02:25;4.87;;;3.10;;
20076;SDS011;12348;42.710;23.378;2022-09-29T03:04:52;8.03;;;3.10;;
20076;SDS011;12348;42.710;23.378;2022-09-29T03:07:21;3.43;;;2.80;;
20076;SDS011;12348;42.710;23.378;2022-09-29T03:09:47;7.30;;;2.80;;
20076;SDS011;12348;42.710;23.378;2022-09-29T03:12:14;6.63;;;4.07;;
20076;SDS011;12348;42.710;23.378;2022-09-29T03:14:42;4.97;;;3.40;;
20076;SDS011;12348;42.710;23.378;2022-09-29T03:17:09;6.57;;;3.27;;
20076;SDS011;12348;42.710;23.378;2022-09-29T03:19:36;8.93;;;4.00;;
20076;SDS011;12348;42.710;23.378;2022-09-29T03:22:02;7.23;;;3.70;;
20076;SDS011;12348;42.710;23.378;2022-09-29T03:24:31;5.00;;;3.30;;
20076;SDS011;12348;42.710;23.378;2022-09-29T03:26:57;4.00;;;3.10;;
20076;SDS011;12348;42.710;23.378;2022-09-29T03:29:24;4.83;;;3.20;;
20076;SDS011;12348;42.710;23.378;2022-09-29T03:31:51;5.30;;;2.73;;
20076;SDS011;12348;42.710;23.378;2022-09-29T03:34:18;5.67;;;3.07;;
20076;SDS011;12348;42.710;23.378;2022-09-29T03:36:45;3.97;;;3.13;;
20076;SDS011;12348;42.710;23.378;2022-09-29T03:39:11;4.43;;;3.53;;
20076;SDS011;12348;42.710;23.378;2022-09-29T03:41:40;6.17;;;3.13;;
20076;SDS011;12348;42.710;23.378;2022-09-29T03:44:07;4.67;;;3.20;;
20076;SDS011;12348;42.710;23.378;2022-09-29T03:46:35;6.23;;;4.03;;
20076;SDS011;12348;42.710;23.378;2022-09-29T03:49:02;7.50;;;3.93;;
20076;SDS011;12348;42.710;23.378;2022-09-29T03:51:29;5.40;;;3.63;;
20076;SDS011;12348;42.710;23.378;2022-09-29T03:53:56;3.60;;;2.30;;
20076;SDS011;12348;42.710;23.378;2022-09-29T03:56:22;6.27;;;3.23;;
20076;SDS011;12348;42.710;23.378;2022-09-29T03:58:50;5.90;;;3.50;;
20076;SDS011;12348;42.710;23.378;2022-09-29T04:01:17;4.20;;;2.63;;
20076;SDS011;12348;42.710;23.378;2022-09-29T04:03:44;8.33;;;4.87;;
20076;SDS011;12348;42.710;23.378;2022-09-29T04:06:11;3.73;;;2.93;;
20076;SDS011;12348;42.710;23.378;2022-09-29T04:08:38;5.27;;;4.03;;
20076;SDS011;12348;42.710;23.378;2022-09-29T04:11:05;3.50;;;2.70;;
20076;SDS011;12348;42.710;23.378;2022-09-29T04:13:32;6.60;;;2.50;;
20076;SDS011;12348;42.710;23.378;2022-09-29T04:16:00;5.00;;;2.90;;
20076;SDS011;12348;42.710;23.378;2022-09-29T04:18:29;4.53;;;2.73;;
20076;SDS011;12348;42.710;23.378;2022-09-29T04:20:56;4.20;;;2.87;;
20076;SDS011;12348;42.710;23.378;2022-09-29T04:23:24;4.50;;;2.97;;
20076;SDS011;12348;42.710;23.378;2022-09-29T04:25:51;4.97;;;3.80;;
20076;SDS011;12348;42.710;23.378;2022-09-29T04:28:18;7.23;;;3.93;;
20076;SDS011;12348;42.710;23.378;2022-09-29T04:30:44;4.47;;;2.47;;
20076;SDS011;12348;42.710;23.378;2022-09-29T04:33:15;5.80;;;3.10;;
20076;SDS011;12348;42.710;23.378;2022-09-29T04:35:42;4.80;;;2.83;;
20076;SDS011;12348;42.710;23.378;2022-09-29T04:38:08;2.83;;;2.33;;
20076;SDS011;12348;42.710;23.378;2022-09-29T04:40:35;5.60;;;3.20;;
20076;SDS011;12348;42.710;23.378;2022-09-29T04:43:03;3.37;;;2.77;;
20076;SDS011;12348;42.710;23.378;2022-09-29T04:45:29;3.80;;;2.80;;
20076;SDS011;12348;42.710;23.378;2022-09-29T04:47:56;2.70;;;2.40;;
20076;SDS011;12348;42.710;23.378;2022-09-29T04:50:25;4.60;;;3.83;;
20076;SDS011;12348;42.710;23.378;2022-09-29T04:52:55;7.17;;;4.40;;
20076;SDS011;12348;42.710;23.378;2022-09-29T04:55:22;8.93;;;4.30;;
20076;SDS011;12348;42.710;23.378;2022-09-29T04:57:48;7.43;;;4.07;;
20076;SDS011;12348;42.710;23.378;2022-09-29T05:00:15;4.80;;;3.33;;
20076;SDS011;12348;42.710;23.378;2022-09-29T05:02:42;7.30;;;4.03;;
20076;SDS011;12348;42.710;23.378;2022-09-29T05:05:09;5.30;;;3.43;;
20076;SDS011;12348;42.710;23.378;2022-09-29T05:07:39;8.40;;;3.10;;
20076;SDS011;12348;42.710;23.378;2022-09-29T05:10:06;6.37;;;2.97;;
20076;SDS011;12348;42.710;23.378;2022-09-29T05:12:34;4.60;;;2.63;;
20076;SDS011;12348;42.710;23.378;2022-09-29T05:15:01;6.70;;;3.73;;
20076;SDS011;12348;42.710;23.378;2022-09-29T05:17:29;6.27;;;3.27;;
20076;SDS011;12348;42.710;23.378;2022-09-29T05:19:55;9.10;;;3.70;;
20076;SDS011;12348;42.710;23.378;2022-09-29T05:22:22;6.87;;;3.50;;
20076;SDS011;12348;42.710;23.378;2022-09-29T05:24:51;7.27;;;3.53;;
20076;SDS011;12348;42.710;23.378;2022-09-29T05:27:18;7.07;;;2.87;;
20076;SDS011;12348;42.710;23.378;2022-09-29T05:29:46;5.57;;;3.23;;
20076;SDS011;12348;42.710;23.378;2022-09-29T05:32:13;9.03;;;2.90;;
20076;SDS011;12348;42.710;23.378;2022-09-29T05:34:40;9.17;;;3.10;;
20076;SDS011;12348;42.710;23.378;2022-09-29T05:37:06;6.87;;;2.90;;
20076;SDS011;12348;42.710;23.378;2022-09-29T05:39:33;6.47;;;3.03;;
20076;SDS011;12348;42.710;23.378;2022-09-29T05:42:02;4.53;;;2.73;;
20076;SDS011;12348;42.710;23.378;2022-09-29T05:44:30;4.80;;;2.23;;
20076;SDS011;12348;42.710;23.378;2022-09-29T05:46:57;6.43;;;2.37;;
20076;SDS011;12348;42.710;23.378;2022-09-29T05:49:24;5.70;;;3.37;;
20076;SDS011;12348;42.710;23.378;2022-09-29T05:51:51;5.50;;;3.13;;
20076;SDS011;12348;42.710;23.378;2022-09-29T05:54:18;7.50;;;3.00;;
20076;SDS011;12348;42.710;23.378;2022-09-29T05:56:45;5.93;;;2.77;;
20076;SDS011;12348;42.710;23.378;2022-09-29T05:59:13;6.47;;;2.80;;
20076;SDS011;12348;42.710;23.378;2022-09-29T06:01:40;3.87;;;2.50;;
20076;SDS011;12348;42.710;23.378;2022-09-29T06:04:07;3.87;;;2.63;;
20076;SDS011;12348;42.710;23.378;2022-09-29T06:06:34;3.77;;;2.37;;
20076;SDS011;12348;42.710;23.378;2022-09-29T06:09:04;8.27;;;3.33;;
20076;SDS011;12348;42.710;23.378;2022-09-29T06:11:32;5.67;;;2.83;;
20076;SDS011;12348;42.710;23.378;2022-09-29T06:14:00;5.17;;;3.30;;
20076;SDS011;12348;42.710;23.378;2022-09-29T06:16:30;5.63;;;2.77;;
20076;SDS011;12348;42.710;23.378;2022-09-29T06:18:58;17.63;;;7.80;;
20076;SDS011;12348;42.710;23.378;2022-09-29T06:21:26;4.63;;;3.47;;
20076;SDS011;12348;42.710;23.378;2022-09-29T06:23:53;9.63;;;5.43;;
20076;SDS011;12348;42.710;23.378;2022-09-29T06:26:22;11.93;;;7.27;;
20076;SDS011;12348;42.710;23.378;2022-09-29T06:28:50;9.73;;;2.90;;
20076;SDS011;12348;42.710;23.378;2022-09-29T06:31:18;5.23;;;2.73;;
20076;SDS011;12348;42.710;23.378;2022-09-29T06:33:48;5.83;;;2.50;;
20076;SDS011;12348;42.710;23.378;2022-09-29T06:36:15;3.70;;;2.40;;
20076;SDS011;12348;42.710;23.378;2022-09-29T06:39:02;4.67;;;2.30;;
20076;SDS011;12348;42.710;23.378;2022-09-29T06:41:29;3.40;;;2.00;;
20076;SDS011;12348;42.710;23.378;2022-09-29T06:43:56;3.37;;;1.80;;
20076;SDS011;12348;42.710;23.378;2022-09-29T06:46:23;6.93;;;2.30;;
20076;SDS011;12348;42.710;23.378;2022-09-29T06:48:52;2.85;;;2.10;;
20076;SDS011;12348;42.710;23.378;2022-09-29T06:51:19;4.50;;;2.47;;
20076;SDS011;12348;42.710;23.378;2022-09-29T06:53:47;4.13;;;2.07;;
20076;SDS011;12348;42.710;23.378;2022-09-29T06:56:14;6.53;;;3.87;;
20076;SDS011;12348;42.710;23.378;2022-09-29T06:58:42;4.10;;;2.33;;
20076;SDS011;12348;42.710;23.378;2022-09-29T07:01:10;2.03;;;1.83;;
20076;SDS011;12348;42.710;23.378;2022-09-29T07:03:37;4.20;;;2.27;;
20076;SDS011;12348;42.710;23.378;2022-09-29T07:06:06;4.67;;;1.57;;
20076;SDS011;12348;42.710;23.378;2022-09-29T07:08:34;4.77;;;2.23;;
20076;SDS011;12348;42.710;23.378;2022-09-29T07:11:03;3.80;;;1.90;;
20076;SDS011;12348;42.710;23.378;2022-09-29T07:13:30;3.80;;;1.77;;
20076;SDS011;12348;42.710;23.378;2022-09-29T07:16:01;2.40;;;2.00;;
20076;SDS011;12348;42.710;23.378;2022-09-29T07:18:30;5.67;;;2.30;;
20076;SDS011;12348;42.710;23.378;2022-09-29T07:20:57;4.23;;;2.60;;
20076;SDS011;12348;42.710;23.378;2022-09-29T07:23:25;4.63;;;2.73;;
20076;SDS011;12348;42.710;23.378;2022-09-29T07:25:52;4.73;;;2.80;;
20076;SDS011;12348;42.710;23.378;2022-09-29T07:28:19;5.73;;;2.40;;
20076;SDS011;12348;42.710;23.378;2022-09-29T07:30:46;8.83;;;1.70;;
20076;SDS011;12348;42.710;23.378;2022-09-29T07:33:12;2.17;;;1.80;;
20076;SDS011;12348;42.710;23.378;2022-09-29T07:35:39;3.87;;;1.90;;
20076;SDS011;12348;42.710;23.378;2022-09-29T07:38:06;2.17;;;1.60;;
20076;SDS011;12348;42.710;23.378;2022-09-29T07:40:34;4.67;;;1.50;;
20076;SDS011;12348;42.710;23.378;2022-09-29T07:43:01;4.80;;;1.77;;
20076;SDS011;12348;42.710;23.378;2022-09-29T07:45:28;1.53;;;1.30;;
20076;SDS011;12348;42.710;23.378;2022-09-29T07:47:55;5.03;;;1.53;;
20076;SDS011;12348;42.710;23.378;2022-09-29T07:50:22;6.83;;;2.37;;
20076;SDS011;12348;42.710;23.378;2022-09-29T07:52:49;2.57;;;1.50;;
20076;SDS011;12348;42.710;23.378;2022-09-29T07:55:16;1.70;;;1.50;;
20076;SDS011;12348;42.710;23.378;2022-09-29T07:58:04;3.43;;;1.60;;
20076;SDS011;12348;42.710;23.378;2022-09-29T08:00:31;2.30;;;1.60;;
20076;SDS011;12348;42.710;23.378;2022-09-29T08:02:58;2.73;;;1.50;;
20076;SDS011;12348;42.710;23.378;2022-09-29T08:05:28;2.63;;;1.37;;
20076;SDS011;12348;42.710;23.378;2022-09-29T08:07:58;4.73;;;1.63;;
20076;SDS011;12348;42.710;23.378;2022-09-29T08:10:25;4.73;;;1.90;;
20076;SDS011;12348;42.710;23.378;2022-09-29T08:12:52;1.70;;;1.53;;
20076;SDS011;12348;42.710;23.378;2022-09-29T08:15:21;4.20;;;1.57;;
20076;SDS011;12348;42.710;23.378;2022-09-29T08:17:50;3.13;;;1.57;;
20076;SDS011;12348;42.710;23.378;2022-09-29T08:20:18;5.70;;;3.43;;
20076;SDS011;12348;42.710;23.378;2022-09-29T08:22:45;5.53;;;1.90;;
20076;SDS011;12348;42.710;23.378;2022-09-29T08:25:12;6.23;;;2.33;;
20076;SDS011;12348;42.710;23.378;2022-09-29T08:27:40;3.97;;;2.27;;
20076;SDS011;12348;42.710;23.378;2022-09-29T08:30:07;3.23;;;2.07;;
20076;SDS011;12348;42.710;23.378;2022-09-29T08:32:36;6.40;;;3.00;;
20076;SDS011;12348;42.710;23.378;2022-09-29T08:35:04;9.57;;;3.10;;
20076;SDS011;12348;42.710;23.378;2022-09-29T08:37:31;2.87;;;1.67;;
20076;SDS011;12348;42.710;23.378;2022-09-29T08:39:58;2.83;;;2.37;;
20076;SDS011;12348;42.710;23.378;2022-09-29T08:42:27;4.37;;;1.87;;
20076;SDS011;12348;42.710;23.378;2022-09-29T08:45:10;4.47;;;1.57;;
20076;SDS011;12348;42.710;23.378;2022-09-29T08:47:42;2.77;;;2.10;;
20076;SDS011;12348;42.710;23.378;2022-09-29T08:50:13;3.77;;;1.77;;
20076;SDS011;12348;42.710;23.378;2022-09-29T08:52:47;3.00;;;1.60;;
20076;SDS011;12348;42.710;23.378;2022-09-29T08:55:20;3.27;;;1.20;;
20076;SDS011;12348;42.710;23.378;2022-09-29T08:57:52;1.10;;;0.80;;
20076;SDS011;12348;42.710;23.378;2022-09-29T09:00:23;1.80;;;0.90;;
20076;SDS011;12348;42.710;23.378;2022-09-29T09:03:07;5.60;;;1.52;;
20076;SDS011;12348;42.710;23.378;2022-09-29T09:05:51;2.67;;;1.55;;
20076;SDS011;12348;42.710;23.378;2022-09-29T09:08:46;1.80;;;1.10;;
20076;SDS011;12348;42.710;23.378;2022-09-29T09:11:32;1.80;;;1.10;;
20076;SDS011;12348;42.710;23.378;2022-09-29T09:14:14;5.23;;;1.43;;
20076;SDS011;12348;42.710;23.378;2022-09-29T09:16:56;1.10;;;1.03;;
20076;SDS011;12348;42.710;23.378;2022-09-29T09:22:29;2.93;;;1.00;;
20076;SDS011;12348;42.710;23.378;2022-09-29T09:25:06;1.93;;;1.10;;
20076;SDS011;12348;42.710;23.378;2022-09-29T09:27:45;1.65;;;1.13;;
20076;SDS011;12348;42.710;23.378;2022-09-29T09:30:15;2.50;;;0.90;;
20076;SDS011;12348;42.710;23.378;2022-09-29T09:32:45;2.20;;;0.93;;
20076;SDS011;12348;42.710;23.378;2022-09-29T09:35:23;2.58;;;0.98;;
20076;SDS011;12348;42.710;23.378;2022-09-29T09:37:55;3.42;;;0.88;;
20076;SDS011;12348;42.710;23.378;2022-09-29T09:40:26;2.40;;;1.80;;
20076;SDS011;12348;42.710;23.378;2022-09-29T09:42:57;1.73;;;1.30;;
20076;SDS011;12348;42.710;23.378;2022-09-29T09:45:28;1.73;;;1.17;;
20076;SDS011;12348;42.710;23.378;2022-09-29T09:48:00;1.70;;;1.07;;
20076;SDS011;12348;42.710;23.378;2022-09-29T09:50:34;2.23;;;0.77;;
20076;SDS011;12348;42.710;23.378;2022-09-29T09:53:08;1.10;;;0.83;;
20076;SDS011;12348;42.710;23.378;2022-09-29T09:55:40;3.70;;;1.13;;
20076;SDS011;12348;42.710;23.378;2022-09-29T10:01:02;2.30;;;1.30;;
20076;SDS011;12348;42.710;23.378;2022-09-29T10:03:31;2.30;;;1.17;;
20076;SDS011;12348;42.710;23.378;2022-09-29T10:09:23;3.97;;;1.67;;
20076;SDS011;12348;42.710;23.378;2022-09-29T10:11:50;5.00;;;1.50;;
20076;SDS011;12348;42.710;23.378;2022-09-29T10:14:18;2.10;;;1.10;;
20076;SDS011;12348;42.710;23.378;2022-09-29T10:16:50;2.90;;;1.13;;
20076;SDS011;12348;42.710;23.378;2022-09-29T10:19:21;1.37;;;1.20;;
20076;SDS011;12348;42.710;23.378;2022-09-29T10:21:49;3.20;;;1.80;;
20076;SDS011;12348;42.710;23.378;2022-09-29T10:24:20;3.10;;;1.40;;
20076;SDS011;12348;42.710;23.378;2022-09-29T10:26:51;2.70;;;1.63;;
20076;SDS011;12348;42.710;23.378;2022-09-29T10:29:22;4.13;;;1.67;;
20076;SDS011;12348;42.710;23.378;2022-09-29T10:34:39;4.27;;;2.07;;
20076;SDS011;12348;42.710;23.378;2022-09-29T10:37:17;2.23;;;1.50;;
20076;SDS011;12348;42.710;23.378;2022-09-29T10:39:48;1.40;;;1.30;;
20076;SDS011;12348;42.710;23.378;2022-09-29T10:42:20;2.43;;;1.03;;
20076;SDS011;12348;42.710;23.378;2022-09-29T10:44:51;1.33;;;1.10;;
20076;SDS011;12348;42.710;23.378;2022-09-29T10:47:21;1.77;;;1.33;;
20076;SDS011;12348;42.710;23.378;2022-09-29T10:49:52;4.00;;;2.83;;
20076;SDS011;12348;42.710;23.378;2022-09-29T10:52:35;2.40;;;1.70;;
20076;SDS011;12348;42.710;23.378;2022-09-29T10:55:03;2.67;;;1.60;;
20076;SDS011;12348;42.710;23.378;2022-09-29T10:57:32;3.20;;;1.37;;
20076;SDS011;12348;42.710;23.378;2022-09-29T11:00:01;2.13;;;1.53;;
20076;SDS011;12348;42.710;23.378;2022-09-29T11:02:31;2.63;;;1.60;;
20076;SDS011;12348;42.710;23.378;2022-09-29T11:05:02;2.07;;;1.40;;
20076;SDS011;12348;42.710;23.378;2022-09-29T11:07:30;4.27;;;1.97;;
20076;SDS011;12348;42.710;23.378;2022-09-29T11:09:58;2.03;;;1.60;;
20076;SDS011;12348;42.710;23.378;2022-09-29T11:12:27;1.30;;;1.20;;
20076;SDS011;12348;42.710;23.378;2022-09-29T11:14:58;3.73;;;1.30;;
20076;SDS011;12348;42.710;23.378;2022-09-29T11:17:26;1.60;;;1.40;;
20076;SDS011;12348;42.710;23.378;2022-09-29T11:19:56;3.07;;;1.50;;
20076;SDS011;12348;42.710;23.378;2022-09-29T11:22:38;1.57;;;1.47;;
20076;SDS011;12348;42.710;23.378;2022-09-29T11:31:20;2.10;;;1.60;;
20076;SDS011;12348;42.710;23.378;2022-09-29T11:33:58;2.00;;;1.37;;
20076;SDS011;12348;42.710;23.378;2022-09-29T11:36:41;2.00;;;1.70;;
20076;SDS011;12348;42.710;23.378;2022-09-29T11:39:19;3.17;;;1.37;;
20076;SDS011;12348;42.710;23.378;2022-09-29T11:41:59;3.47;;;1.50;;
20076;SDS011;12348;42.710;23.378;2022-09-29T11:44:41;3.37;;;2.83;;
20076;SDS011;12348;42.710;23.378;2022-09-29T11:47:23;1.73;;;1.30;;
20076;SDS011;12348;42.710;23.378;2022-09-29T11:50:12;4.10;;;1.60;;
20076;SDS011;12348;42.710;23.378;2022-09-29T11:52:51;3.40;;;1.70;;
20076;SDS011;12348;42.710;23.378;2022-09-29T11:55:30;3.10;;;1.30;;
20076;SDS011;12348;42.710;23.378;2022-09-29T11:58:11;1.93;;;1.13;;
20076;SDS011;12348;42.710;23.378;2022-09-29T12:00:54;0.80;;;0.80;;
20076;SDS011;12348;42.710;23.378;2022-09-29T12:03:35;6.43;;;1.50;;
20076;SDS011;12348;42.710;23.378;2022-09-29T12:09:15;2.30;;;1.60;;
20076;SDS011;12348;42.710;23.378;2022-09-29T12:11:58;0.83;;;0.80;;
20076;SDS011;12348;42.710;23.378;2022-09-29T12:14:36;2.30;;;1.40;;
20076;SDS011;12348;42.710;23.378;2022-09-29T12:17:09;1.30;;;1.00;;
20076;SDS011;12348;42.710;23.378;2022-09-29T12:19:41;3.90;;;1.40;;
20076;SDS011;12348;42.710;23.378;2022-09-29T12:22:10;2.07;;;1.63;;
20076;SDS011;12348;42.710;23.378;2022-09-29T12:24:43;2.93;;;2.00;;
20076;SDS011;12348;42.710;23.378;2022-09-29T12:27:15;2.33;;;1.40;;
20076;SDS011;12348;42.710;23.378;2022-09-29T12:29:47;2.43;;;1.70;;
20076;SDS011;12348;42.710;23.378;2022-09-29T12:32:19;3.20;;;1.50;;
20076;SDS011;12348;42.710;23.378;2022-09-29T12:34:54;3.27;;;1.33;;
20076;SDS011;12348;42.710;23.378;2022-09-29T12:37:26;2.37;;;1.23;;
20076;SDS011;12348;42.710;23.378;2022-09-29T12:40:00;3.97;;;1.50;;
20076;SDS011;12348;42.710;23.378;2022-09-29T12:42:46;1.03;;;0.90;;
20076;SDS011;12348;42.710;23.378;2022-09-29T12:45:25;2.80;;;1.23;;
20076;SDS011;12348;42.710;23.378;2022-09-29T12:47:58;1.40;;;1.30;;
20076;SDS011;12348;42.710;23.378;2022-09-29T12:50:39;2.37;;;1.70;;
20076;SDS011;12348;42.710;23.378;2022-09-29T12:53:14;1.67;;;1.10;;
20076;SDS011;12348;42.710;23.378;2022-09-29T12:55:47;2.20;;;1.40;;
20076;SDS011;12348;42.710;23.378;2022-09-29T12:58:20;2.10;;;1.20;;
20076;SDS011;12348;42.710;23.378;2022-09-29T13:00:53;1.70;;;1.10;;
20076;SDS011;12348;42.710;23.378;2022-09-29T13:09:56;1.73;;;1.30;;
20076;SDS011;12348;42.710;23.378;2022-09-29T13:12:46;0.90;;;0.90;;
20076;SDS011;12348;42.710;23.378;2022-09-29T13:15:34;2.23;;;1.40;;
20076;SDS011;12348;42.710;23.378;2022-09-29T13:18:20;3.17;;;1.30;;
20076;SDS011;12348;42.710;23.378;2022-09-29T13:20:58;4.27;;;0.90;;
20076;SDS011;12348;42.710;23.378;2022-09-29T13:23:49;2.27;;;0.97;;
20076;SDS011;12348;42.710;23.378;2022-09-29T13:26:30;1.67;;;0.97;;
20076;SDS011;12348;42.710;23.378;2022-09-29T13:29:17;1.30;;;1.00;;
20076;SDS011;12348;42.710;23.378;2022-09-29T13:31:47;1.50;;;1.27;;
20076;SDS011;12348;42.710;23.378;2022-09-29T13:34:17;0.80;;;0.80;;
20076;SDS011;12348;42.710;23.378;2022-09-29T13:36:49;2.00;;;0.90;;
20076;SDS011;12348;42.710;23.378;2022-09-29T13:39:20;1.73;;;1.20;;
20076;SDS011;12348;42.710;23.378;2022-09-29T13:41:51;2.87;;;1.00;;
20076;SDS011;12348;42.710;23.378;2022-09-29T13:44:23;1.90;;;1.43;;
20076;SDS011;12348;42.710;23.378;2022-09-29T13:46:52;1.90;;;1.33;;
20076;SDS011;12348;42.710;23.378;2022-09-29T13:49:24;1.87;;;1.37;;
20076;SDS011;12348;42.710;23.378;2022-09-29T13:51:53;4.33;;;1.30;;
20076;SDS011;12348;42.710;23.378;2022-09-29T13:57:19;1.20;;;1.13;;
20076;SDS011;12348;42.710;23.378;2022-09-29T14:08:43;1.30;;;1.20;;
20076;SDS011;12348;42.710;23.378;2022-09-29T14:11:16;2.53;;;2.23;;
20076;SDS011;12348;42.710;23.378;2022-09-29T14:13:52;4.63;;;1.67;;
20076;SDS011;12348;42.710;23.378;2022-09-29T14:16:30;2.07;;;1.33;;
20076;SDS011;12348;42.710;23.378;2022-09-29T14:19:04;2.27;;;0.97;;
20076;SDS011;12348;42.710;23.378;2022-09-29T14:21:44;1.63;;;1.23;;
20076;SDS011;12348;42.710;23.378;2022-09-29T14:32:50;4.40;;;1.50;;
20076;SDS011;12348;42.710;23.378;2022-09-29T14:35:22;5.50;;;2.33;;
20076;SDS011;12348;42.710;23.378;2022-09-29T14:37:56;2.47;;;1.17;;
20076;SDS011;12348;42.710;23.378;2022-09-29T14:40:26;3.80;;;1.63;;
20076;SDS011;12348;42.710;23.378;2022-09-29T14:43:02;2.07;;;1.30;;
20076;SDS011;12348;42.710;23.378;2022-09-29T14:45:41;3.93;;;1.50;;
20076;SDS011;12348;42.710;23.378;2022-09-29T14:48:51;2.90;;;1.57;;
20076;SDS011;12348;42.710;23.378;2022-09-29T14:51:50;2.87;;;1.97;;
20076;SDS011;12348;42.710;23.378;2022-09-29T14:54:27;2.90;;;1.83;;
20076;SDS011;12348;42.710;23.378;2022-09-29T14:57:02;6.10;;;3.37;;
20076;SDS011;12348;42.710;23.378;2022-09-29T14:59:41;3.43;;;2.47;;
20076;SDS011;12348;42.710;23.378;2022-09-29T15:02:19;2.67;;;1.93;;
20076;SDS011;12348;42.710;23.378;2022-09-29T15:04:49;2.17;;;1.67;;
20076;SDS011;12348;42.710;23.378;2022-09-29T15:07:16;2.13;;;1.93;;
20076;SDS011;12348;42.710;23.378;2022-09-29T15:09:46;7.43;;;3.50;;
20076;SDS011;12348;42.710;23.378;2022-09-29T15:12:17;13.93;;;7.63;;
20076;SDS011;12348;42.710;23.378;2022-09-29T15:14:49;6.03;;;3.50;;
20076;SDS011;12348;42.710;23.378;2022-09-29T15:17:18;5.30;;;3.40;;
20076;SDS011;12348;42.710;23.378;2022-09-29T15:19:57;5.87;;;3.40;;
20076;SDS011;12348;42.710;23.378;2022-09-29T15:22:46;10.23;;;5.50;;
20076;SDS011;12348;42.710;23.378;2022-09-29T15:25:25;9.67;;;4.40;;
20076;SDS011;12348;42.710;23.378;2022-09-29T15:27:54;18.87;;;7.97;;
20076;SDS011;12348;42.710;23.378;2022-09-29T15:30:26;8.27;;;5.33;;
20076;SDS011;12348;42.710;23.378;2022-09-29T15:33:02;9.67;;;4.43;;
20076;SDS011;12348;42.710;23.378;2022-09-29T15:35:45;9.77;;;6.23;;
20076;SDS011;12348;42.710;23.378;2022-09-29T15:38:16;11.30;;;5.63;;
20076;SDS011;12348;42.710;23.378;2022-09-29T15:40:57;17.60;;;9.47;;
20076;SDS011;12348;42.710;23.378;2022-09-29T15:43:26;8.17;;;4.97;;
20076;SDS011;12348;42.710;23.378;2022-09-29T15:45:56;9.97;;;4.40;;
20076;SDS011;12348;42.710;23.378;2022-09-29T15:48:25;11.63;;;5.63;;
20076;SDS011;12348;42.710;23.378;2022-09-29T15:50:53;9.27;;;4.77;;
20076;SDS011;12348;42.710;23.378;2022-09-29T15:53:20;16.87;;;8.33;;
20076;SDS011;12348;42.710;23.378;2022-09-29T15:55:48;10.07;;;6.07;;
20076;SDS011;12348;42.710;23.378;2022-09-29T16:01:13;9.97;;;5.87;;